Alkol, WV (25501)

10:41 PM EDT on April 20, 2015 (GMT -0400)
Trace Creek | | Change Station
CLOSE
Current Station
Personal Weather Station
Location: Hamlin, WV
Elevation: 713 ft
Nearby Weather Stations

Elev 713 ft 38.26 °N, 82.08 °W | Updated 46 seconds ago

Overcast
Overcast
53.9 °F
Feels Like 53.9 °F
N
0.0
Wind Variable Wind from ENE
Gusts 0.0 mph

Today
High -- | Low -- °F
--% Chance of Precip.
Yesterday
High -- | Low -- °F
Precip. -- in
6:45 AM 8:08 PM
Waxing Crescent, 7% visible
Pressure 29.69 in
Visibility 9.0 miles
Clouds Few 1800 ft
Mostly Cloudy 3000 ft
Overcast 4800 ft
Dew Point 51 °F
Humidity 89%
Rainfall 0.04 in
Snow Depth Not available.
UV 0 out of 12
Pollen 6.00 out of 12
Air Quality Not available.
Flu Activity Sporadic
METAR KCRW 210154Z COR 30013G19KT 9SM -RA FEW018 BKN030 OVC048 13/09 A2970 RMK AO2 RAB43 SLP052 PRESRR P0000 T01330089

More Conditions Fewer Conditions

Pressure 29.69 in
Visibility 9.0 miles
Clouds Few 1800 ft
Mostly Cloudy 3000 ft
Overcast 4800 ft
Dew Point 51 °F
Humidity 89%
Rainfall 0.04 in
Snow Depth Not available.
UV 0 out of 12
Pollen 6.00 out of 12
Air Quality Not available.
Flu Activity Sporadic
METAR KCRW 210154Z COR 30013G19KT 9SM -RA FEW018 BKN030 OVC048 13/09 A2970 RMK AO2 RAB43 SLP052 PRESRR P0000 T01330089

More Conditions Fewer Conditions

10-Day Weather Forecast

Almanac

Astronomy

Apr. 20, 2015 Rise Set
Actual Time
Civil Twilight
Nautical Twilight
Astronomical Twilight
Moon
Length of Visible Light
Length of Day
Tomorrow will be .
, % of the Moon is Illuminated

Today's Extremes

State Highs State Lows

Community

WunderPhotos

Upload Photos

1,815,283 photos uploaded!

WunderBlogs® & News

Nearby

Air Quality

  Air Quality AQ Index Pollutant
Not available.

Snow Depth

Station Depth Elevation

Earthquake Activity

City Distance Mag. Time & Date
Minimum magnitude displayed is 2.5.

Coastal Water Temperatures

Place Temperature

Stations

Nearby Weather Stations

Station Location Temp. Windchill Dew Point Humidity Wind Precip. Elev Updated Type